Time;durP1;ratioP1;P1;durP2;ratioP2;P2;SDS_P1;SDS_P2;PMS_P1;PMS_P2;Temp;Humidity;BMP_temperature;BMP_pressure;BME280_temperature;BME280_humidity;BME280_pressure;Samples;Min_cycle;Max_cycle;Signal;HPM_P1;HPM_P2
2022/10/09 00:00:47;;;;;;;11.48;2.70;;;6.40;99.90;;;;;;5049604;28;20127;-41
2022/10/09 00:03:13;;;;;;;11.43;3.83;;;6.40;99.90;;;;;;5049906;28;20136;-40
2022/10/09 00:05:39;;;;;;;8.43;3.38;;;8.70;99.90;;;;;;5049920;28;20086;-40
2022/10/09 00:08:05;;;;;;;16.98;4.53;;;6.40;99.90;;;;;;5049217;28;20391;-41
2022/10/09 00:10:30;;;;;;;9.65;3.80;;;6.40;99.90;;;;;;5049369;28;20474;-40
2022/10/09 00:12:56;;;;;;;13.30;4.13;;;6.40;99.90;;;;;;5050039;28;20056;-40
2022/10/09 00:15:22;;;;;;;11.90;3.70;;;6.40;99.90;;;;;;5049104;28;20045;-40
2022/10/09 00:17:48;;;;;;;9.20;4.05;;;6.30;99.90;;;;;;5050543;28;20053;-41
2022/10/09 00:20:14;;;;;;;11.95;4.00;;;6.30;99.90;;;;;;5050173;28;20041;-41
2022/10/09 00:22:42;;;;;;;17.73;4.43;;;6.30;99.90;;;;;;5048869;28;20395;-40
2022/10/09 00:25:08;;;;;;;15.25;4.60;;;6.30;99.90;;;;;;5049304;28;20466;-41
2022/10/09 00:27:34;;;;;;;11.68;4.10;;;7.10;99.90;;;;;;5049210;28;20446;-41
2022/10/09 00:30:00;;;;;;;23.35;4.50;;;6.30;99.90;;;;;;5049550;28;20044;-41
2022/10/09 00:32:26;;;;;;;13.48;4.40;;;6.20;99.90;;;;;;5049557;28;20041;-41
2022/10/09 00:34:51;;;;;;;13.82;4.55;;;6.20;99.90;;;;;;5049895;28;20048;-41
2022/10/09 00:37:17;;;;;;;13.93;5.40;;;6.20;99.90;;;;;;5049947;28;20043;-41
2022/10/09 00:39:42;;;;;;;15.05;4.38;;;6.10;99.90;;;;;;5049193;28;20684;-40
2022/10/09 00:42:12;;;;;;;20.63;4.68;;;6.10;99.90;;;;;;5049299;28;20049;-41
2022/10/09 00:44:48;;;;;;;13.65;5.13;;;6.00;99.90;;;;;;5049299;28;20654;-41
2022/10/09 00:47:37;;;;;;;12.43;5.28;;;6.00;99.90;;;;;;5049160;28;20049;-42
2022/10/09 00:50:12;;;;;;;12.23;4.68;;;6.00;99.90;;;;;;5049257;28;20478;-41
2022/10/09 00:52:38;;;;;;;15.18;5.05;;;6.00;99.90;;;;;;5049282;28;20047;-41
2022/10/09 00:55:06;;;;;;;14.55;4.72;;;5.90;99.90;;;;;;5049347;28;20045;-41
2022/10/09 00:57:32;;;;;;;12.50;4.85;;;5.90;99.90;;;;;;5048711;28;20053;-42
2022/10/09 01:00:03;;;;;;;16.15;5.38;;;5.80;99.90;;;;;;5049719;28;20052;-42
2022/10/09 01:02:28;;;;;;;16.25;5.35;;;5.80;99.90;;;;;;5049549;28;20041;-41
2022/10/09 01:04:54;;;;;;;15.50;5.55;;;5.80;99.90;;;;;;5048856;28;20037;-40
2022/10/09 01:07:43;;;;;;;16.92;5.85;;;5.80;99.90;;;;;;5048196;28;20122;-40
2022/10/09 01:10:31;;;;;;;10.50;5.00;;;5.80;99.90;;;;;;5017445;28;20044;-40
2022/10/09 01:13:20;;;;;;;18.27;5.68;;;5.80;99.90;;;;;;5049846;28;20391;-41
2022/10/09 01:16:00;;;;;;;14.95;6.22;;;5.80;99.90;;;;;;5040100;28;20074;-40
2022/10/09 01:18:55;;;;;;;12.75;5.45;;;5.80;99.90;;;;;;5046617;28;20041;-40
2022/10/09 01:21:30;;;;;;;13.63;5.40;;;5.70;99.90;;;;;;5046310;28;20044;-42
2022/10/09 01:24:31;;;;;;;15.18;5.35;;;5.70;99.90;;;;;;5046921;28;20033;-42
2022/10/09 01:27:06;;;;;;;17.30;5.85;;;5.60;99.90;;;;;;5046573;28;20529;-41
2022/10/09 01:29:36;;;;;;;13.45;5.20;;;5.60;99.90;;;;;;5046856;28;20658;-41
2022/10/09 01:32:04;;;;;;;10.65;4.57;;;5.60;99.90;;;;;;5046200;28;20109;-41
2022/10/09 01:34:31;;;;;;;14.68;4.82;;;5.50;99.90;;;;;;5046039;28;20044;-41
2022/10/09 01:36:57;;;;;;;11.50;4.63;;;5.50;99.90;;;;;;5046238;28;20501;-41
2022/10/09 01:39:25;;;;;;;13.73;4.88;;;5.50;99.90;;;;;;5046160;28;20040;-41
2022/10/09 01:41:53;;;;;;;13.55;4.60;;;5.40;99.90;;;;;;5046406;28;20080;-42
2022/10/09 01:44:30;;;;;;;12.55;4.68;;;5.40;99.90;;;;;;5046611;28;20200;-40
2022/10/09 01:46:57;;;;;;;16.52;6.75;;;5.40;99.90;;;;;;5046146;28;20061;-42
2022/10/09 01:49:44;;;;;;;13.77;5.20;;;5.40;99.90;;;;;;5046147;28;20088;-41
2022/10/09 01:52:34;;;;;;;6.97;3.72;;;5.40;99.90;;;;;;5046531;28;20102;-41
2022/10/09 01:55:05;;;;;;;13.57;4.60;;;5.30;99.90;;;;;;5045940;28;20044;-42
2022/10/09 01:57:39;;;;;;;12.25;4.82;;;5.30;99.90;;;;;;5045745;28;20407;-42
2022/10/09 02:00:09;;;;;;;14.10;4.53;;;5.30;99.90;;;;;;5045842;28;20542;-40
2022/10/09 02:02:36;;;;;;;16.08;5.15;;;5.30;99.90;;;;;;5045684;28;20568;-41
2022/10/09 02:05:02;;;;;;;13.77;5.07;;;5.30;99.90;;;;;;5045870;28;20080;-41
2022/10/09 02:07:30;;;;;;;11.43;4.78;;;5.20;99.90;;;;;;5045638;28;20033;-41
2022/10/09 02:09:56;;;;;;;13.38;5.45;;;5.20;99.90;;;;;;5045596;28;20144;-41
2022/10/09 02:12:26;;;;;;;15.02;4.90;;;5.20;99.90;;;;;;5045512;28;20451;-41
2022/10/09 02:14:52;;;;;;;15.18;5.22;;;5.20;99.90;;;;;;5045368;28;20512;-40
2022/10/09 02:17:25;;;;;;;15.02;4.97;;;6.50;99.90;;;;;;5045667;28;20068;-41
2022/10/09 02:19:58;;;;;;;10.25;3.83;;;5.10;99.90;;;;;;5045163;28;20096;-41
2022/10/09 02:22:34;;;;;;;13.50;5.35;;;5.20;99.90;;;;;;5045234;28;20511;-41
2022/10/09 02:25:02;;;;;;;16.75;5.43;;;5.20;99.90;;;;;;5045886;28;20048;-40
2022/10/09 02:27:28;;;;;;;18.27;5.72;;;5.20;99.90;;;;;;5046442;28;20052;-41
2022/10/09 02:29:54;;;;;;;16.98;5.97;;;5.20;99.90;;;;;;5046140;28;20040;-41
2022/10/09 02:32:21;;;;;;;12.00;5.28;;;5.20;99.90;;;;;;5046804;28;20041;-41
2022/10/09 02:34:47;;;;;;;20.73;5.53;;;5.20;99.90;;;;;;5046429;28;20052;-40
2022/10/09 02:37:13;;;;;;;17.25;6.40;;;5.20;99.90;;;;;;5046249;28;20041;-40
2022/10/09 02:39:39;;;;;;;12.85;5.70;;;5.20;99.90;;;;;;5046067;28;20124;-42
2022/10/09 02:42:05;;;;;;;12.48;5.93;;;5.20;99.90;;;;;;5046438;28;20045;-41
2022/10/09 02:44:31;;;;;;;14.15;6.22;;;5.20;99.90;;;;;;5045981;28;20048;-40
2022/10/09 02:46:56;;;;;;;19.35;6.93;;;5.20;99.90;;;;;;5045264;28;20095;-42
2022/10/09 02:49:22;;;;;;;18.77;6.68;;;5.10;99.90;;;;;;5045842;28;20483;-41
2022/10/09 02:51:48;;;;;;;15.05;6.32;;;5.20;99.90;;;;;;5045695;28;20390;-41
2022/10/09 02:54:13;;;;;;;15.07;6.45;;;5.20;99.90;;;;;;5046178;28;20159;-41
2022/10/09 02:56:39;;;;;;;19.27;7.35;;;5.20;99.90;;;;;;5045798;28;20044;-41
2022/10/09 02:59:05;;;;;;;22.98;7.18;;;5.20;99.90;;;;;;5045369;28;20036;-40
2022/10/09 03:01:30;;;;;;;19.05;8.07;;;5.10;99.90;;;;;;5045063;28;20037;-40
2022/10/09 03:03:56;;;;;;;18.33;7.65;;;5.10;99.90;;;;;;5045461;28;20048;-40
2022/10/09 03:06:24;;;;;;;17.73;6.85;;;5.10;99.90;;;;;;5045443;28;20033;-40
2022/10/09 03:08:50;;;;;;;18.05;7.90;;;5.10;99.90;;;;;;5045575;28;20037;-41
2022/10/09 03:11:18;;;;;;;15.90;7.90;;;5.10;99.90;;;;;;5044804;28;20506;-41
2022/10/09 03:13:44;;;;;;;18.05;8.63;;;5.10;99.90;;;;;;5059903;28;20204;-40
2022/10/09 03:16:12;;;;;;;26.23;8.90;;;5.10;99.90;;;;;;5045805;28;20079;-42
2022/10/09 03:18:38;;;;;;;17.60;7.82;;;5.00;99.90;;;;;;5045488;28;20059;-41
2022/10/09 03:21:08;;;;;;;14.20;7.55;;;5.00;99.90;;;;;;5045976;28;20106;-41
2022/10/09 03:23:34;;;;;;;14.75;8.25;;;5.00;99.90;;;;;;5045518;28;20079;-41
2022/10/09 03:26:03;;;;;;;22.50;9.50;;;4.90;99.90;;;;;;5045806;28;20080;-41
2022/10/09 03:28:29;;;;;;;18.60;8.40;;;5.00;99.90;;;;;;5045907;28;20033;-41
2022/10/09 03:30:55;;;;;;;25.27;9.05;;;5.00;99.90;;;;;;5045691;28;20387;-41
2022/10/09 03:33:21;;;;;;;26.77;9.25;;;4.90;99.90;;;;;;5044654;28;20426;-41
2022/10/09 03:35:48;;;;;;;17.30;9.07;;;5.00;99.90;;;;;;5046138;28;20043;-41
2022/10/09 03:38:14;;;;;;;22.33;9.88;;;4.90;99.90;;;;;;5045939;28;20045;-41
2022/10/09 03:40:40;;;;;;;21.02;9.30;;;4.90;99.90;;;;;;5045672;28;20063;-40
2022/10/09 03:43:06;;;;;;;19.08;8.73;;;4.90;99.90;;;;;;5045596;28;20462;-41
2022/10/09 03:45:31;;;;;;;23.42;9.13;;;4.90;99.90;;;;;;5045205;28;20135;-41
2022/10/09 03:47:57;;;;;;;24.48;9.73;;;5.20;99.90;;;;;;5045372;28;20083;-40
2022/10/09 03:50:23;;;;;;;19.17;8.82;;;4.90;99.90;;;;;;5045340;28;20033;-41
2022/10/09 03:52:49;;;;;;;20.98;8.68;;;4.80;99.90;;;;;;5045367;28;20045;-41
2022/10/09 03:55:15;;;;;;;18.67;9.23;;;4.90;99.90;;;;;;5045369;28;20041;-42
2022/10/09 03:57:40;;;;;;;23.83;9.93;;;4.90;99.90;;;;;;5045374;28;20435;-41
2022/10/09 04:00:07;;;;;;;21.35;10.25;;;4.90;99.90;;;;;;5044750;28;20041;-40
2022/10/09 04:02:33;;;;;;;21.88;10.20;;;4.90;99.90;;;;;;5044702;28;20490;-42
2022/10/09 04:04:59;;;;;;;24.58;10.07;;;5.00;99.90;;;;;;5044747;28;20375;-40
2022/10/09 04:07:25;;;;;;;19.13;9.40;;;5.00;99.90;;;;;;5044714;28;20323;-41
2022/10/09 04:09:50;;;;;;;23.42;11.30;;;5.00;99.90;;;;;;5044860;28;20524;-41
2022/10/09 04:12:16;;;;;;;29.63;11.20;;;5.00;99.90;;;;;;5045976;28;20384;-40
2022/10/09 04:14:42;;;;;;;24.90;11.30;;;5.00;99.90;;;;;;5048761;28;20568;-41
2022/10/09 04:17:08;;;;;;;20.00;10.38;;;5.00;99.90;;;;;;5048740;28;20045;-42
2022/10/09 04:19:35;;;;;;;25.15;10.10;;;4.90;99.90;;;;;;5048520;28;20041;-41
2022/10/09 04:22:00;;;;;;;25.00;11.13;;;4.90;99.90;;;;;;5048982;28;20052;-41
2022/10/09 04:24:26;;;;;;;24.98;10.65;;;4.90;99.90;;;;;;5048979;28;20114;-41
2022/10/09 04:26:52;;;;;;;25.00;11.48;;;4.90;99.90;;;;;;5048228;28;20048;-41
2022/10/09 04:29:17;;;;;;;20.38;9.65;;;5.70;99.90;;;;;;5048713;28;20041;-41
2022/10/09 04:31:43;;;;;;;24.45;10.75;;;4.90;99.90;;;;;;5048746;28;20043;-40
2022/10/09 04:34:08;;;;;;;18.50;9.65;;;4.90;99.90;;;;;;5048293;28;20040;-42
2022/10/09 04:36:34;;;;;;;25.92;10.90;;;4.90;99.90;;;;;;5048070;28;20048;-41
2022/10/09 04:39:00;;;;;;;23.63;11.60;;;4.90;99.90;;;;;;5048250;28;20049;-41
2022/10/09 04:41:25;;;;;;;23.88;10.10;;;4.90;99.90;;;;;;5047973;28;20049;-40
2022/10/09 04:43:55;;;;;;;19.33;9.77;;;4.80;99.90;;;;;;5048133;28;20455;-40
2022/10/09 04:46:21;;;;;;;24.60;10.57;;;4.80;99.90;;;;;;5048317;28;20057;-40
2022/10/09 04:48:47;;;;;;;21.67;10.23;;;4.80;99.90;;;;;;5048454;28;20053;-41
2022/10/09 04:51:14;;;;;;;27.80;10.38;;;4.80;99.90;;;;;;5048685;28;20041;-40
2022/10/09 04:53:40;;;;;;;20.15;9.70;;;4.80;99.90;;;;;;5048291;28;20049;-41
2022/10/09 04:56:09;;;;;;;26.17;10.80;;;4.80;99.90;;;;;;5047430;28;20067;-40
2022/10/09 04:58:36;;;;;;;21.73;10.77;;;4.80;99.90;;;;;;5048564;28;20041;-41
2022/10/09 05:01:22;;;;;;;24.13;10.48;;;4.80;99.90;;;;;;5048249;28;20041;-40
2022/10/09 05:03:48;;;;;;;32.65;10.82;;;4.70;99.90;;;;;;5048300;28;20491;-41
2022/10/09 05:06:15;;;;;;;26.67;11.70;;;4.70;99.90;;;;;;5047729;28;20568;-40
2022/10/09 05:08:42;;;;;;;18.35;10.25;;;5.40;99.90;;;;;;5047577;28;20049;-40
2022/10/09 05:11:13;;;;;;;19.95;10.18;;;4.70;99.90;;;;;;5047693;28;20043;-42
2022/10/09 05:13:41;;;;;;;25.65;10.27;;;4.60;99.90;;;;;;5048034;28;20045;-40
2022/10/09 05:16:10;;;;;;;21.67;11.00;;;5.00;99.90;;;;;;5048342;28;20108;-40
2022/10/09 05:18:41;;;;;;;24.55;11.70;;;4.60;99.90;;;;;;5048663;28;20044;-42
2022/10/09 05:21:07;;;;;;;26.85;12.10;;;4.70;99.90;;;;;;5048263;28;20091;-40
2022/10/09 05:23:34;;;;;;;22.98;10.52;;;4.70;99.90;;;;;;5047451;28;20518;-40
2022/10/09 05:26:05;;;;;;;29.92;11.55;;;4.70;99.90;;;;;;5047064;28;20067;-41
2022/10/09 05:28:32;;;;;;;26.75;12.70;;;4.70;99.90;;;;;;5047517;28;20041;-40
2022/10/09 05:30:57;;;;;;;19.63;11.40;;;4.70;99.90;;;;;;5047158;28;20106;-40
2022/10/09 05:33:23;;;;;;;28.60;12.05;;;4.70;99.90;;;;;;5047258;28;20487;-40
2022/10/09 05:35:54;;;;;;;20.08;10.45;;;4.70;99.90;;;;;;5047039;28;20045;-40
2022/10/09 05:38:22;;;;;;;23.08;10.93;;;4.70;99.90;;;;;;5047195;28;20098;-41
2022/10/09 05:41:00;;;;;;;29.17;10.88;;;5.00;99.90;;;;;;5047217;28;20106;-40
2022/10/09 05:43:27;;;;;;;23.58;10.48;;;4.60;99.90;;;;;;5047526;28;20071;-40
2022/10/09 05:45:53;;;;;;;20.55;10.70;;;4.60;99.90;;;;;;5046937;28;20587;-40
2022/10/09 05:48:20;;;;;;;19.92;10.13;;;5.30;99.90;;;;;;5046980;28;20443;-40
2022/10/09 05:50:46;;;;;;;22.52;10.88;;;4.60;99.90;;;;;;5045522;28;20403;-41
2022/10/09 05:53:12;;;;;;;24.02;11.00;;;4.60;99.90;;;;;;5046901;28;20040;-40
2022/10/09 05:55:38;;;;;;;23.23;11.00;;;4.60;99.90;;;;;;5046508;28;20520;-40
2022/10/09 05:58:03;;;;;;;25.23;11.73;;;4.60;99.90;;;;;;5046871;28;20098;-40
2022/10/09 06:00:29;;;;;;;22.48;11.45;;;4.60;99.90;;;;;;5047123;28;20123;-40
2022/10/09 06:02:55;;;;;;;24.67;11.57;;;4.70;99.90;;;;;;5047291;28;20071;-40
2022/10/09 06:05:21;;;;;;;21.60;11.57;;;4.70;99.90;;;;;;5047199;28;20395;-40
2022/10/09 06:07:47;;;;;;;27.30;11.65;;;4.70;99.90;;;;;;5047361;28;20142;-40
2022/10/09 06:10:13;;;;;;;24.38;12.32;;;4.70;99.90;;;;;;5046908;28;20487;-42
2022/10/09 06:12:39;;;;;;;28.80;11.25;;;4.70;99.90;;;;;;5047001;28;20395;-41
2022/10/09 06:15:05;;;;;;;20.30;11.60;;;4.70;99.90;;;;;;5046679;28;20037;-41
2022/10/09 06:17:32;;;;;;;26.92;12.05;;;4.70;99.90;;;;;;5046897;28;20049;-40
2022/10/09 06:19:57;;;;;;;26.90;12.55;;;4.70;99.90;;;;;;5047004;28;20074;-42
2022/10/09 06:22:23;;;;;;;23.08;11.65;;;4.70;99.90;;;;;;5046678;28;20048;-40
2022/10/09 06:24:49;;;;;;;26.48;12.40;;;4.70;99.90;;;;;;5046518;28;20044;-40
2022/10/09 06:27:14;;;;;;;20.13;11.75;;;4.80;99.90;;;;;;5046187;28;20408;-40
2022/10/09 06:29:40;;;;;;;23.60;12.35;;;4.80;99.90;;;;;;5046568;28;20449;-40
2022/10/09 06:32:06;;;;;;;31.75;13.57;;;4.80;99.90;;;;;;5046249;28;20721;-40
2022/10/09 06:34:31;;;;;;;29.67;13.63;;;4.90;99.90;;;;;;5046591;28;20525;-41
2022/10/09 06:36:57;;;;;;;28.20;13.68;;;4.90;99.90;;;;;;5046309;28;20119;-40
2022/10/09 06:39:25;;;;;;;19.67;10.80;;;4.90;99.90;;;;;;5046350;28;20045;-40
2022/10/09 06:41:51;;;;;;;23.20;13.00;;;4.90;99.90;;;;;;5046054;28;20105;-41
2022/10/09 06:44:17;;;;;;;22.30;12.05;;;5.80;99.90;;;;;;5046071;28;20040;-40
2022/10/09 06:46:44;;;;;;;32.58;14.25;;;4.90;99.90;;;;;;5045969;28;20103;-40
2022/10/09 06:49:10;;;;;;;31.77;14.60;;;4.90;99.90;;;;;;5046078;28;20064;-40
2022/10/09 06:51:37;;;;;;;26.73;13.82;;;5.00;99.90;;;;;;5046393;28;20078;-41
2022/10/09 06:54:08;;;;;;;26.52;14.13;;;5.00;99.90;;;;;;5045773;28;20043;-40
2022/10/09 06:56:34;;;;;;;30.02;15.27;;;5.10;99.90;;;;;;5045911;28;20120;-41
2022/10/09 06:59:01;;;;;;;26.88;15.38;;;5.20;99.90;;;;;;5046470;28;20557;-41
2022/10/09 07:01:31;;;;;;;29.00;15.38;;;5.20;99.90;;;;;;5045992;28;20384;-41
2022/10/09 07:03:59;;;;;;;30.70;15.15;;;5.30;99.90;;;;;;5045641;28;20106;-40
2022/10/09 07:06:30;;;;;;;25.25;14.52;;;5.40;99.90;;;;;;5045717;28;20143;-42
2022/10/09 07:09:02;;;;;;;29.85;15.52;;;5.40;99.90;;;;;;5045785;28;20048;-42
2022/10/09 07:11:33;;;;;;;40.47;18.08;;;5.50;99.90;;;;;;5045749;28;20036;-43
2022/10/09 07:14:02;;;;;;;31.00;15.65;;;5.70;99.90;;;;;;5045951;28;20063;-41
2022/10/09 07:16:38;;;;;;;26.73;16.30;;;5.90;99.90;;;;;;5045466;28;20041;-40
2022/10/09 07:19:09;;;;;;;31.27;16.20;;;6.00;99.90;;;;;;5045615;28;20049;-41
2022/10/09 07:21:37;;;;;;;25.17;16.25;;;6.10;99.90;;;;;;5045503;28;20473;-40
2022/10/09 07:24:04;;;;;;;37.97;19.15;;;6.20;99.90;;;;;;5045638;28;20044;-42
2022/10/09 07:26:32;;;;;;;25.35;15.25;;;6.30;99.90;;;;;;5045139;28;20045;-41
2022/10/09 07:28:59;;;;;;;27.73;15.95;;;7.30;99.90;;;;;;5045221;28;20110;-41
2022/10/09 07:31:24;;;;;;;23.98;15.77;;;6.50;99.90;;;;;;5045089;28;20041;-42
2022/10/09 07:33:52;;;;;;;28.17;17.52;;;6.50;99.90;;;;;;5045418;28;20045;-41
2022/10/09 07:36:18;;;;;;;22.83;15.52;;;6.60;99.90;;;;;;5045452;28;20064;-40
2022/10/09 07:38:52;;;;;;;26.00;15.80;;;6.60;99.90;;;;;;5045992;28;20498;-42
2022/10/09 07:41:18;;;;;;;35.00;17.75;;;6.80;99.90;;;;;;5045424;28;20537;-41
2022/10/09 07:43:44;;;;;;;33.88;18.83;;;6.90;99.90;;;;;;5045883;28;20045;-41
2022/10/09 07:46:12;;;;;;;28.73;16.48;;;7.00;99.90;;;;;;5045842;28;20068;-40
2022/10/09 07:48:38;;;;;;;24.48;15.18;;;7.10;99.90;;;;;;5049200;28;20056;-41
2022/10/09 07:51:13;;;;;;;29.20;15.95;;;7.30;99.90;;;;;;5050398;28;20040;-41
2022/10/09 07:53:38;;;;;;;23.83;15.93;;;7.40;99.90;;;;;;5049636;28;20040;-41
2022/10/09 07:56:05;;;;;;;29.15;17.42;;;8.50;99.90;;;;;;5049566;28;20379;-41
2022/10/09 07:58:32;;;;;;;24.88;16.00;;;7.60;99.90;;;;;;5049814;28;20053;-41
2022/10/09 08:01:07;;;;;;;21.98;15.98;;;7.70;99.90;;;;;;5049693;28;20048;-42
2022/10/09 08:03:33;;;;;;;27.88;18.00;;;7.80;99.90;;;;;;5049473;28;20398;-41
2022/10/09 08:05:59;;;;;;;25.42;16.95;;;7.90;99.90;;;;;;5049484;28;20041;-41
2022/10/09 08:08:25;;;;;;;23.90;15.70;;;8.00;99.90;;;;;;5048783;28;20052;-41
2022/10/09 08:10:51;;;;;;;23.42;16.60;;;8.10;99.90;;;;;;5049594;28;20037;-41
2022/10/09 08:13:16;;;;;;;23.38;15.85;;;8.20;99.90;;;;;;5049474;28;20091;-40
2022/10/09 08:15:43;;;;;;;20.52;14.55;;;8.40;99.90;;;;;;5049576;28;20460;-41
2022/10/09 08:18:12;;;;;;;20.73;15.52;;;8.50;99.90;;;;;;5049675;28;20056;-41
2022/10/09 08:20:38;;;;;;;24.77;17.02;;;8.60;99.90;;;;;;5049742;28;20144;-41
2022/10/09 08:23:04;;;;;;;20.25;13.90;;;8.90;99.90;;;;;;5049493;28;20538;-41
2022/10/09 08:25:34;;;;;;;19.75;12.98;;;8.80;99.90;;;;;;5049160;28;20521;-41
2022/10/09 08:27:59;;;;;;;18.15;13.73;;;8.90;99.90;;;;;;5049270;28;20041;-41
2022/10/09 08:30:25;;;;;;;22.80;15.43;;;9.10;99.90;;;;;;5047955;28;20037;-42
2022/10/09 08:32:51;;;;;;;20.48;14.32;;;9.20;99.90;;;;;;5048857;28;20048;-41
2022/10/09 08:35:17;;;;;;;19.48;14.63;;;10.40;99.90;;;;;;5048569;28;20450;-41
2022/10/09 08:37:42;;;;;;;20.52;13.45;;;9.50;99.90;;;;;;5048792;28;20053;-41
2022/10/09 08:40:15;;;;;;;22.77;13.85;;;9.70;99.90;;;;;;5048478;28;20037;-40
2022/10/09 08:42:54;;;;;;;21.73;12.32;;;10.60;99.90;;;;;;5048455;28;20076;-41
2022/10/09 08:45:19;;;;;;;19.98;13.00;;;10.10;99.90;;;;;;5048602;28;20037;-41
2022/10/09 08:48:03;;;;;;;16.20;12.38;;;10.60;99.90;;;;;;5048204;28;20095;-41
2022/10/09 08:50:33;;;;;;;16.38;11.85;;;10.90;99.90;;;;;;5048355;28;20483;-41
2022/10/09 08:53:22;;;;;;;19.20;11.30;;;10.70;99.90;;;;;;5048578;28;20037;-40
2022/10/09 08:56:00;;;;;;;17.20;9.88;;;10.80;99.90;;;;;;5048453;28;20099;-41
2022/10/09 08:58:31;;;;;;;13.63;7.68;;;11.00;99.90;;;;;;5047573;28;20451;-43
2022/10/09 09:01:00;;;;;;;15.48;10.60;;;11.20;99.90;;;;;;5048181;28;20498;-41
2022/10/09 09:03:40;;;;;;;15.52;8.85;;;11.30;99.90;;;;;;5048409;28;20049;-41
2022/10/09 09:06:54;;;;;;;16.75;9.15;;;11.50;99.90;;;;;;5048550;28;20051;-42
2022/10/09 09:09:30;;;;;;;12.68;6.75;;;11.60;99.90;;;;;;5034274;28;20140;-41
2022/10/09 09:12:05;;;;;;;14.43;6.13;;;11.80;99.90;;;;;;5048612;28;20055;-42
2022/10/09 09:14:36;;;;;;;11.52;5.28;;;12.00;99.90;;;;;;5048228;28;20494;-41
2022/10/09 09:17:02;;;;;;;14.07;6.60;;;12.10;99.90;;;;;;5048328;28;20124;-42
2022/10/09 09:19:41;;;;;;;14.40;6.07;;;12.60;99.90;;;;;;5047341;28;20608;-41
2022/10/09 09:22:14;;;;;;;12.23;5.40;;;12.40;99.90;;;;;;5047931;28;20284;-42
2022/10/09 09:24:50;;;;;;;9.82;4.05;;;12.80;99.90;;;;;;5047631;28;20052;-41
2022/10/09 09:27:18;;;;;;;8.10;3.53;;;12.60;99.90;;;;;;5062919;28;20041;-41
2022/10/09 09:29:54;;;;;;;12.13;2.97;;;13.00;99.90;;;;;;5048504;28;20382;-41
2022/10/09 09:32:23;;;;;;;10.70;3.08;;;12.80;99.90;;;;;;5046490;28;20226;-42
2022/10/09 09:34:49;;;;;;;8.32;2.90;;;12.90;99.90;;;;;;5047550;28;20115;-41
2022/10/09 09:37:16;;;;;;;10.63;3.33;;;13.10;99.90;;;;;;5047346;28;20056;-41
2022/10/09 09:39:42;;;;;;;5.53;2.40;;;13.20;99.90;;;;;;5047369;28;20159;-41
2022/10/09 09:42:18;;;;;;;9.75;3.67;;;13.30;99.90;;;;;;5047316;28;20052;-41
2022/10/09 09:44:56;;;;;;;8.32;2.55;;;13.40;99.90;;;;;;5046678;28;20052;-42
2022/10/09 09:47:31;;;;;;;9.18;2.55;;;13.40;99.90;;;;;;5046563;28;20057;-41
2022/10/09 09:50:00;;;;;;;8.23;1.73;;;13.60;99.90;;;;;;5047281;28;20040;-41
2022/10/09 09:52:31;;;;;;;5.93;1.50;;;13.70;99.90;;;;;;5047156;28;20035;-42
2022/10/09 09:54:57;;;;;;;7.13;1.77;;;13.70;99.90;;;;;;5047147;28;20116;-41
2022/10/09 09:57:33;;;;;;;7.07;1.98;;;13.80;99.90;;;;;;5047258;28;20048;-42
2022/10/09 10:00:21;;;;;;;8.13;2.22;;;13.90;99.90;;;;;;5047533;28;20059;-41
2022/10/09 10:02:48;;;;;;;7.38;1.83;;;14.00;99.90;;;;;;5047125;28;20037;-42
2022/10/09 10:05:23;;;;;;;11.18;2.63;;;14.00;99.90;;;;;;5047140;28;20055;-41
2022/10/09 10:07:50;;;;;;;9.88;2.28;;;14.10;99.90;;;;;;5046251;28;20479;-42
2022/10/09 10:10:22;;;;;;;5.53;2.05;;;14.10;99.90;;;;;;5046954;28;20055;-41
2022/10/09 10:12:57;;;;;;;10.40;2.25;;;14.20;99.90;;;;;;5046929;28;20071;-42
2022/10/09 10:15:33;;;;;;;6.38;1.75;;;14.20;99.90;;;;;;5046672;28;20117;-41
2022/10/09 10:18:04;;;;;;;10.75;1.75;;;14.20;99.90;;;;;;5046982;28;20399;-41
2022/10/09 10:20:40;;;;;;;6.15;1.98;;;14.30;99.90;;;;;;5046369;28;20601;-41
2022/10/09 10:23:24;;;;;;;7.43;2.20;;;14.30;99.90;;;;;;5046536;28;20087;-41
2022/10/09 10:25:54;;;;;;;4.75;1.70;;;14.40;99.90;;;;;;5046282;28;20407;-42
2022/10/09 10:28:25;;;;;;;6.78;1.20;;;13.20;99.90;;;;;;5061000;28;20087;-42
2022/10/09 10:30:54;;;;;;;7.55;1.15;;;14.70;99.90;;;;;;5046415;28;20443;-41
2022/10/09 10:33:28;;;;;;;5.55;1.55;;;14.50;99.90;;;;;;5046425;28;20048;-41
2022/10/09 10:35:56;;;;;;;7.35;1.38;;;14.50;99.90;;;;;;5045574;28;20483;-41
2022/10/09 10:38:31;;;;;;;7.70;1.20;;;14.50;99.90;;;;;;5045828;28;20568;-41
2022/10/09 10:41:20;;;;;;;7.55;1.20;;;14.60;99.90;;;;;;5046463;28;20087;-42
2022/10/09 10:44:05;;;;;;;5.88;1.10;;;14.60;99.90;;;;;;5046148;28;20037;-40
2022/10/09 10:46:38;;;;;;;6.13;0.90;;;14.60;99.90;;;;;;5045373;28;20060;-41
2022/10/09 10:49:10;;;;;;;4.68;0.90;;;14.50;99.90;;;;;;5046050;28;20127;-42
2022/10/09 10:51:52;;;;;;;10.95;1.52;;;14.60;99.90;;;;;;5046110;28;20055;-41
2022/10/09 10:54:23;;;;;;;9.85;1.17;;;14.60;99.90;;;;;;5045690;28;20041;-42
2022/10/09 10:57:03;;;;;;;5.10;1.30;;;14.60;99.90;;;;;;5045755;28;20045;-42
2022/10/09 10:59:39;;;;;;;9.45;1.40;;;14.70;99.90;;;;;;5045725;28;20052;-42
2022/10/09 11:02:31;;;;;;;5.13;1.15;;;14.70;99.90;;;;;;5045925;28;20045;-42
2022/10/09 11:05:34;;;;;;;4.77;0.70;;;14.70;99.90;;;;;;5045712;28;20048;-45
2022/10/09 11:08:02;;;;;;;;;;;14.60;99.90;;;;;;5046046;28;20312;-44
2022/10/09 11:10:52;;;;;;;7.32;0.95;;;14.60;99.90;;;;;;5045579;28;20122;-43
2022/10/09 11:13:43;;;;;;;8.55;0.90;;;14.60;99.90;;;;;;5045354;28;20072;-43
2022/10/09 11:16:24;;;;;;;6.35;0.98;;;14.60;99.90;;;;;;5045527;28;20041;-43
2022/10/09 11:19:10;;;;;;;4.18;0.68;;;14.70;99.90;;;;;;5045345;28;20254;-43
2022/10/09 11:22:02;;;;;;;7.95;1.00;;;14.70;99.90;;;;;;5044751;28;20538;-43
2022/10/09 11:24:28;;;;;;;7.22;0.90;;;14.80;99.90;;;;;;5041954;28;20392;-44
2022/10/09 11:27:07;;;;;;;4.63;0.70;;;14.80;99.90;;;;;;5045186;28;20056;-43
2022/10/09 11:29:46;;;;;;;4.18;0.85;;;14.80;99.90;;;;;;5045054;28;20123;-43
2022/10/09 11:32:27;;;;;;;5.28;0.77;;;14.80;99.90;;;;;;5045690;28;20143;-43
2022/10/09 11:35:11;;;;;;;7.90;0.85;;;14.90;99.90;;;;;;5045170;28;20051;-43
2022/10/09 11:37:40;;;;;;;5.95;1.27;;;14.90;99.90;;;;;;5045253;28;20124;-44
2022/10/09 11:40:23;;;;;;;6.88;0.75;;;14.90;99.90;;;;;;5045112;28;20041;-43
2022/10/09 11:43:02;;;;;;;6.95;0.82;;;14.80;99.90;;;;;;5045018;28;20051;-43
2022/10/09 11:45:36;;;;;;;4.90;0.68;;;14.80;99.90;;;;;;5045141;28;20577;-43
2022/10/09 11:48:18;;;;;;;3.50;0.70;;;14.80;99.90;;;;;;5045441;28;20407;-43
2022/10/09 11:51:05;;;;;;;4.18;0.50;;;14.80;99.90;;;;;;5045094;28;20049;-43
2022/10/09 11:53:35;;;;;;;7.65;1.30;;;14.80;99.90;;;;;;5045127;28;20333;-44
2022/10/09 11:56:07;;;;;;;6.43;0.80;;;14.80;99.90;;;;;;5045032;28;20548;-43
2022/10/09 11:58:34;;;;;;;6.10;0.70;;;14.80;99.90;;;;;;5045193;28;20077;-43
2022/10/09 12:01:23;;;;;;;8.00;0.85;;;14.70;99.90;;;;;;5044844;28;20605;-44
2022/10/09 12:04:03;;;;;;;2.83;0.47;;;14.70;99.90;;;;;;5045266;28;20393;-45
2022/10/09 12:06:30;;;;;;;4.68;0.80;;;14.70;99.90;;;;;;5045882;28;20493;-43
2022/10/09 12:09:01;;;;;;;2.47;0.50;;;14.70;99.90;;;;;;5045373;28;20051;-43
2022/10/09 12:11:28;;;;;;;4.50;0.40;;;14.70;99.90;;;;;;5045820;28;20430;-44
2022/10/09 12:14:00;;;;;;;5.43;0.50;;;14.70;99.90;;;;;;5045121;28;20041;-45
2022/10/09 12:16:28;;;;;;;;;;;14.70;99.90;;;;;;5045700;28;20072;-45
2022/10/09 12:18:55;;;;;;;3.08;0.70;;;14.70;99.90;;;;;;5044944;28;19927;-43
2022/10/09 12:21:25;;;;;;;7.82;0.73;;;14.70;99.90;;;;;;5044989;28;20040;-43
2022/10/09 12:23:51;;;;;;;6.03;0.52;;;14.60;99.90;;;;;;5045103;28;20054;-44
2022/10/09 12:26:20;;;;;;;4.75;0.50;;;14.70;99.90;;;;;;5044928;28;20430;-44
2022/10/09 12:28:54;;;;;;;6.95;0.90;;;14.80;99.90;;;;;;5044312;28;20048;-45
2022/10/09 12:31:28;;;;;;;5.47;0.93;;;14.60;99.90;;;;;;5044585;28;20052;-44
2022/10/09 12:33:59;;;;;;;3.45;0.40;;;14.70;99.90;;;;;;5045689;28;20037;-43
2022/10/09 12:36:30;;;;;;;3.08;0.57;;;14.70;99.90;;;;;;5048478;28;20071;-43
2022/10/09 12:38:56;;;;;;;3.85;0.30;;;14.70;99.90;;;;;;5047563;28;20061;-43
2022/10/09 12:41:27;;;;;;;3.05;0.50;;;14.70;99.80;;;;;;5047927;28;20522;-44
2022/10/09 12:43:55;;;;;;;2.38;0.30;;;14.70;99.70;;;;;;5048370;28;20126;-44
2022/10/09 12:46:29;;;;;;;5.80;0.70;;;14.70;99.80;;;;;;5047751;28;20530;-45
2022/10/09 12:48:56;;;;;;;4.28;0.50;;;14.70;99.20;;;;;;5048004;28;20407;-44
2022/10/09 12:51:24;;;;;;;4.43;0.35;;;14.70;99.20;;;;;;5047812;28;20396;-45
2022/10/09 12:53:51;;;;;;;5.68;0.60;;;14.60;99.30;;;;;;5047567;28;20314;-45
2022/10/09 12:56:24;;;;;;;3.00;0.38;;;14.70;98.50;;;;;;5047611;28;20044;-44
2022/10/09 12:58:51;;;;;;;3.67;0.68;;;14.60;98.50;;;;;;5047882;28;20188;-43